EGPFEGNS

Guest
Details From EGPF - Glasgow
To EGNS - Isle Of Man Ronaldsway
Flight Number -
Tags generated
Created
Modified
Stats Distance 108 nm / 200 km
Max Altitude 100 ft / 30 m
Waypoints 3
Social Downloads 1
Likes 0
Share VATSIM

Download

Looking for another format? Having issues loading an existing format? Contact us
Advertisement - Login to hide

Notes

Basic altitude profile: - Ascent Rate: 1800ft/min - Ascent Speed: 320kts - Cruise Altitude: 32000ft - Cruise Speed: 450kts - Descent Rate: 1800ft/min - Descent Speed: 200kts Options: - Use NATs: yes - Use PACOTS: yes - Use low airways: yes - Use high airways: yes

Route

EGPF GOW EGNS

ID Type Via Altitude Latitude Longitude Leg Dist Tot Dist Heading (true) Name
O EGPF APT - 0 ft / 0 m 55.87173˚ -4.43365˚ - 0 nm - Glasgow
GOW VOR - 100 ft / 30 m 55.87050˚ -4.44573˚ 0 nm 0 nm 260° / 260° GLASGOW VOR-DME
O EGNS APT - 0 ft / 0 m 54.08283˚ -4.62548˚ 107 nm 107 nm 183° / 183° Isle Of Man Ronaldsway

Altitude Profile

Advertisement - Login to hide

EGPF

Details ICAO EGPF (GLA)
Name Glasgow
Region United Kingdom
Timezone Europe/London (UTC+1.0)
Stats Elevation 26 ft / 8 m (AMSL)
Location 55.871728° -4.433648°
Runways 1
Magnetic Variation 2.658° W

METAR

EGPF 202150Z AUTO 15006KT 9999 NCD 15/05 Q1018

Decode

TAF

TAF TAF EGPF 201700Z 2018/2118 19008KT 9999 SCT035 PROB40 TEMPO 2020/2105 7000 -RA PROB30 TEMPO 2022/2113 BKN014

Decode

Departure Runways

ID Width Length Bearing (true) Bearing (mag) Surface Threshold Offset Overrun Length
05 151 ft / 46 m 8,721 ft / 2,658 m 46.34° 49.00° Asphalt 0 ft / 0 m 499 ft / 152 m
23 151 ft / 46 m 8,721 ft / 2,658 m 226.37° 229.03° Asphalt 1,004 ft / 306 m 0 ft / 0 m

EGNS

Details ICAO EGNS (IOM)
Name Isle Of Man Ronaldsway
Region United Kingdom
Timezone Europe/Isle_of_Man (UTC+1.0)
Stats Elevation 52 ft / 16 m (AMSL)
Location 54.082833° -4.625475°
Runways 2
Magnetic Variation 2.418° W

METAR

EGNS 202150Z 08004KT CAVOK 10/08 Q1018

Decode

TAF

Not found

Destination Runways

ID Width Length Bearing (true) Bearing (mag) Surface Threshold Offset Overrun Length
03 151 ft / 46 m 4,113 ft / 1,254 m 27.91° 30.33° Asphalt 492 ft / 150 m 0 ft / 0 m
08 151 ft / 46 m 6,016 ft / 1,834 m 77.93° 80.35° Asphalt 545 ft / 166 m 0 ft / 0 m
21 151 ft / 46 m 4,113 ft / 1,254 m 207.92° 210.34° Asphalt 0 ft / 0 m 0 ft / 0 m
26 151 ft / 46 m 6,016 ft / 1,834 m 257.95° 260.37° Asphalt 486 ft / 148 m 0 ft / 0 m

Approach Navaids

Runway Type Ident Frequency Range Bearing (true) Bearing (mag) Slope Elevation
08 Localiser IRH 111.15 MHz 18 nm / 33 km 82.35° 84.77° - 29 ft / 9 m (AMSL)
08 Glidescope IRH 111.15 MHz 10 nm / 19 km 82.35° 84.77° 3.00° 33 ft / 10 m (AMSL)
08 DME IRH 111.15 MHz 18 nm / 33 km - - - 33 ft / 10 m (AMSL)
26 Localiser IRY 111.15 MHz 18 nm / 33 km 257.92° 260.34° - 29 ft / 9 m (AMSL)
26 Glidescope IRY 111.15 MHz 10 nm / 19 km 257.94° 260.36° 3.00° 33 ft / 10 m (AMSL)
26 DME IRY 111.15 MHz 18 nm / 33 km - - - 33 ft / 10 m (AMSL)

Popular Alternatives